createdAt,value
2023-03-08T00:00:20.104Z,1003.9
2023-03-08T00:05:20.116Z,1003.9
2023-03-08T00:10:20.099Z,1003.9
2023-03-08T00:15:20.111Z,1004
2023-03-08T00:20:20.107Z,1004
2023-03-08T00:25:20.104Z,1004
2023-03-08T00:30:20.109Z,1004
2023-03-08T00:35:20.169Z,1004
2023-03-08T00:40:20.106Z,1004
2023-03-08T00:45:20.116Z,1004.1
2023-03-08T00:50:20.105Z,1004
2023-03-08T00:55:20.120Z,1004.1
2023-03-08T01:00:20.103Z,1004.2
2023-03-08T01:05:20.307Z,1004.1
2023-03-08T01:10:20.099Z,1004.1
2023-03-08T01:15:20.113Z,1004.1
2023-03-08T01:20:20.108Z,1004.1
2023-03-08T01:25:20.112Z,1004
2023-03-08T01:30:20.117Z,1003.9
2023-03-08T01:35:20.105Z,1003.9
2023-03-08T01:40:20.100Z,1003.9
2023-03-08T01:45:20.117Z,1003.8
2023-03-08T01:50:20.108Z,1003.9
2023-03-08T01:55:20.109Z,1003.8
2023-03-08T02:00:20.095Z,1003.8
2023-03-08T02:05:20.111Z,1003.8
2023-03-08T02:10:20.108Z,1003.7
2023-03-08T02:15:20.150Z,1003.7
2023-03-08T02:20:20.104Z,1003.6
2023-03-08T02:25:20.112Z,1003.6
2023-03-08T02:30:20.106Z,1003.5
2023-03-08T02:35:20.143Z,1003.5
2023-03-08T02:40:20.109Z,1003.6
2023-03-08T02:45:20.102Z,1003.7
2023-03-08T02:50:20.100Z,1003.6
2023-03-08T02:55:20.102Z,1003.5
2023-03-08T03:00:20.110Z,1003.5
2023-03-08T03:05:20.102Z,1003.4
2023-03-08T03:10:20.112Z,1003.4
2023-03-08T03:15:20.112Z,1003.3
2023-03-08T03:20:20.117Z,1003.3
2023-03-08T03:25:20.111Z,1003.4
2023-03-08T03:30:20.108Z,1003.4
2023-03-08T03:35:20.111Z,1003.3
2023-03-08T03:40:20.100Z,1003.3
2023-03-08T03:45:20.096Z,1003.2
2023-03-08T03:50:20.104Z,1003.1
2023-03-08T03:55:20.118Z,1003.2
2023-03-08T04:00:20.098Z,1003.1
2023-03-08T04:05:20.119Z,1003.1
2023-03-08T04:10:20.105Z,1003.2
2023-03-08T04:15:20.104Z,1003.2
2023-03-08T04:20:20.108Z,1003.2
2023-03-08T04:25:20.099Z,1003.2
2023-03-08T04:30:20.110Z,1003
2023-03-08T04:35:20.109Z,1002.9
2023-03-08T04:40:20.104Z,1002.9
2023-03-08T04:45:20.115Z,1002.8
2023-03-08T04:50:20.103Z,1002.8
2023-03-08T04:55:20.116Z,1002.8
2023-03-08T05:00:20.109Z,1002.7
2023-03-08T05:05:20.167Z,1002.8
2023-03-08T05:10:20.109Z,1002.7
2023-03-08T05:15:20.115Z,1002.7
2023-03-08T05:20:20.116Z,1002.5
2023-03-08T05:25:20.115Z,1002.6
2023-03-08T05:30:20.113Z,1002.5
2023-03-08T05:35:20.110Z,1002.6
2023-03-08T05:40:20.107Z,1002.5
2023-03-08T05:45:20.192Z,1002.6
2023-03-08T05:50:20.100Z,1002.5
2023-03-08T05:55:20.096Z,1002.4
2023-03-08T06:00:20.107Z,1002.6
2023-03-08T06:05:20.103Z,1002.3
2023-03-08T06:10:20.102Z,1002.5
2023-03-08T06:15:20.090Z,1002.5
2023-03-08T06:20:20.095Z,1002.6
2023-03-08T06:25:20.944Z,1002.5
2023-03-08T06:30:20.177Z,1002.4
2023-03-08T06:35:20.140Z,1002.5
2023-03-08T06:40:20.107Z,1002.6
2023-03-08T06:45:20.120Z,1002.6
2023-03-08T06:50:20.111Z,1002.6
2023-03-08T06:55:20.120Z,1002.6
2023-03-08T07:00:20.122Z,1002.6
2023-03-08T07:05:20.117Z,1002.7
2023-03-08T07:10:20.110Z,1002.5
2023-03-08T07:15:20.104Z,1002.5
2023-03-08T07:20:20.093Z,1002.5
2023-03-08T07:25:20.119Z,1002.5
2023-03-08T07:30:20.099Z,1002.5
2023-03-08T07:35:20.105Z,1002.6
2023-03-08T07:40:20.110Z,1002.5
2023-03-08T07:45:20.100Z,1002.5
2023-03-08T07:50:20.110Z,1002.6
2023-03-08T07:55:20.112Z,1002.5
2023-03-08T08:00:20.118Z,1002.4
2023-03-08T08:05:20.127Z,1002.3
2023-03-08T08:10:20.115Z,1002.2
2023-03-08T08:15:20.100Z,1002
2023-03-08T08:20:20.095Z,1002
2023-03-08T08:25:20.104Z,1001.9
2023-03-08T08:30:20.106Z,1001.8
2023-03-08T08:35:20.105Z,1001.7
2023-03-08T08:40:20.101Z,1001.5
2023-03-08T08:45:20.129Z,1001.3
2023-03-08T08:50:20.108Z,1001.3
2023-03-08T08:55:20.108Z,1001.1
2023-03-08T09:00:20.119Z,1000.9
2023-03-08T09:05:20.208Z,1000.9
2023-03-08T09:10:20.119Z,1000.8
2023-03-08T09:15:20.110Z,1000.7
2023-03-08T09:20:22.137Z,1000.6
2023-03-08T09:25:20.116Z,1000.4
2023-03-08T09:30:20.100Z,1000.3
2023-03-08T09:35:20.114Z,1000.1
2023-03-08T09:40:20.122Z,999.9
2023-03-08T09:45:20.108Z,999.9
2023-03-08T09:50:20.103Z,999.8
2023-03-08T09:55:20.214Z,999.8
2023-03-08T10:00:20.112Z,1000
2023-03-08T10:05:20.111Z,999.8
2023-03-08T10:10:22.322Z,999.6
2023-03-08T10:15:20.099Z,999.6
2023-03-08T10:20:20.156Z,999.7
2023-03-08T10:25:20.100Z,999.7
2023-03-08T10:30:20.109Z,999.5
2023-03-08T10:35:20.105Z,999.5
2023-03-08T10:40:20.133Z,999.2
2023-03-08T10:45:20.121Z,999.2
2023-03-08T10:50:20.110Z,999.1
2023-03-08T10:55:20.122Z,999.1
2023-03-08T11:00:20.112Z,999
2023-03-08T11:05:20.114Z,999
2023-03-08T11:10:20.187Z,999
2023-03-08T11:15:20.129Z,999
2023-03-08T11:20:20.116Z,999
2023-03-08T11:25:20.113Z,998.8
2023-03-08T11:30:20.106Z,998.8
2023-03-08T11:35:20.111Z,998.7
2023-03-08T11:40:20.115Z,998.7
2023-03-08T11:45:20.112Z,998.5
2023-03-08T11:50:20.099Z,998.3
2023-03-08T11:55:20.152Z,998
2023-03-08T12:00:20.103Z,998
2023-03-08T12:05:20.163Z,997.9
2023-03-08T12:10:20.232Z,997.8
2023-03-08T12:15:20.186Z,997.8
2023-03-08T12:20:20.232Z,997.7
2023-03-08T12:25:20.115Z,997.8
2023-03-08T12:30:20.108Z,997.7
2023-03-08T12:35:20.127Z,997.6
2023-03-08T12:40:20.312Z,997.5
2023-03-08T12:45:20.112Z,997.3
2023-03-08T12:50:20.174Z,997.3
2023-03-08T12:55:20.121Z,997.3
2023-03-08T13:00:20.171Z,997.3
2023-03-08T13:05:20.128Z,997.3
2023-03-08T13:10:20.115Z,997.2
2023-03-08T13:15:20.123Z,997.2
2023-03-08T13:20:20.163Z,997.1
2023-03-08T13:25:20.213Z,997.1
2023-03-08T13:30:20.183Z,997.1
2023-03-08T13:35:20.114Z,997.1
2023-03-08T13:40:20.111Z,996.9
2023-03-08T13:45:20.126Z,996.9
2023-03-08T13:50:20.122Z,996.9
2023-03-08T13:55:20.139Z,996.9
2023-03-08T14:00:20.244Z,996.9
2023-03-08T14:05:20.121Z,996.9
2023-03-08T14:10:20.117Z,996.9
2023-03-08T14:15:20.183Z,996.8
2023-03-08T14:20:20.178Z,996.7
2023-03-08T14:25:20.161Z,996.6
2023-03-08T14:30:20.097Z,996.5
2023-03-08T14:35:20.095Z,996.5
2023-03-08T14:40:20.109Z,996.4
2023-03-08T14:45:20.111Z,996.5
2023-03-08T14:50:20.106Z,996.5
2023-03-08T14:55:20.110Z,996.6
2023-03-08T15:00:20.092Z,996.5
2023-03-08T15:05:28.662Z,996.6
2023-03-08T15:10:20.094Z,996.5
2023-03-08T15:15:20.115Z,996.3
2023-03-08T15:20:20.099Z,996.1
2023-03-08T15:25:20.115Z,996.2
2023-03-08T15:30:20.114Z,996.2
2023-03-08T15:35:20.113Z,996.2
2023-03-08T15:40:20.118Z,996.2
2023-03-08T15:45:20.112Z,996.2
2023-03-08T15:50:20.141Z,995.9
2023-03-08T15:55:20.108Z,995.9
2023-03-08T16:00:20.113Z,995.8
2023-03-08T16:05:20.118Z,995.5
2023-03-08T16:10:20.104Z,995.4
2023-03-08T16:15:20.126Z,995.4
2023-03-08T16:20:20.114Z,995.5
2023-03-08T16:25:20.100Z,995.5
2023-03-08T16:30:20.134Z,995.5
2023-03-08T16:35:20.119Z,995.6
2023-03-08T16:40:20.123Z,995.6
2023-03-08T16:45:20.394Z,995.5
2023-03-08T16:50:20.111Z,995.3
2023-03-08T16:55:20.121Z,995.3
2023-03-08T17:00:20.090Z,995.2
2023-03-08T17:05:20.100Z,995.4
2023-03-08T17:10:20.092Z,995.4
2023-03-08T17:15:20.120Z,995.4
2023-03-08T17:20:20.102Z,995.4
2023-03-08T17:25:20.108Z,995.3
2023-03-08T17:30:20.098Z,995.4
2023-03-08T17:35:20.151Z,995.4
2023-03-08T17:40:20.113Z,995.4
2023-03-08T17:45:20.112Z,995.3
2023-03-08T17:50:20.109Z,995.3
2023-03-08T17:55:20.097Z,995.3
2023-03-08T18:00:20.093Z,995.3
2023-03-08T18:05:20.121Z,995.3
2023-03-08T18:10:20.109Z,995.3
2023-03-08T18:15:20.109Z,995.4
2023-03-08T18:20:20.130Z,995.4
2023-03-08T18:25:20.098Z,995.4
2023-03-08T18:30:20.107Z,995.5
2023-03-08T18:35:20.103Z,995.4
2023-03-08T18:40:20.103Z,995.4
2023-03-08T18:45:20.112Z,995.4
2023-03-08T18:50:20.108Z,995.5
2023-03-08T18:55:20.107Z,995.5
2023-03-08T19:00:20.097Z,995.5
2023-03-08T19:05:20.101Z,995.5
2023-03-08T19:10:20.102Z,995.5
2023-03-08T19:15:20.113Z,995.6
2023-03-08T19:20:20.108Z,995.6
2023-03-08T19:25:20.108Z,995.8
2023-03-08T19:30:20.097Z,995.9
2023-03-08T19:35:20.108Z,995.9
2023-03-08T19:40:20.097Z,996
2023-03-08T19:45:20.108Z,995.9
2023-03-08T19:50:20.295Z,996
2023-03-08T19:55:20.113Z,995.9
2023-03-08T20:00:20.101Z,995.9
2023-03-08T20:05:20.132Z,995.8
2023-03-08T20:10:20.105Z,995.9
2023-03-08T20:15:20.116Z,995.9
2023-03-08T20:20:20.108Z,995.8
2023-03-08T20:25:20.113Z,995.9
2023-03-08T20:30:20.105Z,996
2023-03-08T20:35:21.655Z,996.1
2023-03-08T20:40:20.103Z,996
2023-03-08T20:45:20.118Z,996
2023-03-08T20:50:20.109Z,995.9
2023-03-08T20:55:20.109Z,996
2023-03-08T21:00:20.098Z,996
2023-03-08T21:05:20.118Z,995.9
2023-03-08T21:10:20.110Z,995.8
2023-03-08T21:15:20.112Z,995.8
2023-03-08T21:20:20.100Z,995.7
2023-03-08T21:25:20.104Z,995.5
2023-03-08T21:30:20.096Z,995.2
2023-03-08T21:35:20.117Z,995.2
2023-03-08T21:40:20.102Z,995.4
2023-03-08T21:45:20.098Z,995.4
2023-03-08T21:50:20.103Z,995.2
2023-03-08T21:55:20.098Z,995.4
2023-03-08T22:00:20.109Z,995.3
2023-03-08T22:05:20.103Z,995.3
2023-03-08T22:10:20.106Z,995.2
2023-03-08T22:15:20.101Z,995.2
2023-03-08T22:20:20.103Z,995.1
2023-03-08T22:25:20.091Z,995.2
2023-03-08T22:30:20.110Z,995.1
2023-03-08T22:35:20.117Z,995.2
2023-03-08T22:40:20.105Z,995.1
2023-03-08T22:45:20.108Z,995
2023-03-08T22:50:20.098Z,995.1
2023-03-08T22:55:20.118Z,995.1
2023-03-08T23:00:20.123Z,995.2
2023-03-08T23:05:20.127Z,995.2
2023-03-08T23:10:20.100Z,995.1
2023-03-08T23:15:20.106Z,994.9
2023-03-08T23:20:20.200Z,994.9
2023-03-08T23:25:20.107Z,994.9
2023-03-08T23:30:20.099Z,994.7
2023-03-08T23:35:20.103Z,994.5
2023-03-08T23:40:20.114Z,994.5
2023-03-08T23:45:20.101Z,994.3
2023-03-08T23:50:20.102Z,994.3
2023-03-08T23:55:20.107Z,994.2
